sensor_id;sensor_type;location;lat;lon;timestamp;P1;durP1;ratioP1;P2;durP2;ratioP2
18194;SDS011;9223;50.988;3.162;2023-08-30T00:04:51;6.43;;;4.30;;
18194;SDS011;9223;50.988;3.162;2023-08-30T00:10:55;5.63;;;4.50;;
18194;SDS011;9223;50.988;3.162;2023-08-30T00:17:00;6.07;;;4.28;;
18194;SDS011;9223;50.988;3.162;2023-08-30T00:23:05;6.60;;;3.55;;
18194;SDS011;9223;50.988;3.162;2023-08-30T00:29:08;5.53;;;4.10;;
18194;SDS011;9223;50.988;3.162;2023-08-30T00:35:11;3.55;;;3.25;;
18194;SDS011;9223;50.988;3.162;2023-08-30T00:41:16;4.93;;;3.60;;
18194;SDS011;9223;50.988;3.162;2023-08-30T00:47:20;6.05;;;3.38;;
18194;SDS011;9223;50.988;3.162;2023-08-30T00:53:24;8.25;;;4.18;;
18194;SDS011;9223;50.988;3.162;2023-08-30T00:59:29;4.68;;;3.55;;
18194;SDS011;9223;50.988;3.162;2023-08-30T01:05:33;3.35;;;2.97;;
18194;SDS011;9223;50.988;3.162;2023-08-30T01:11:39;2.72;;;2.47;;
18194;SDS011;9223;50.988;3.162;2023-08-30T01:17:44;2.28;;;1.60;;
18194;SDS011;9223;50.988;3.162;2023-08-30T01:23:54;3.00;;;2.15;;
18194;SDS011;9223;50.988;3.162;2023-08-30T01:30:01;3.08;;;2.42;;
18194;SDS011;9223;50.988;3.162;2023-08-30T01:36:05;4.63;;;2.58;;
18194;SDS011;9223;50.988;3.162;2023-08-30T01:42:09;2.88;;;2.40;;
18194;SDS011;9223;50.988;3.162;2023-08-30T01:48:15;3.90;;;2.90;;
18194;SDS011;9223;50.988;3.162;2023-08-30T01:54:19;4.75;;;2.90;;
18194;SDS011;9223;50.988;3.162;2023-08-30T02:00:23;3.03;;;2.55;;
18194;SDS011;9223;50.988;3.162;2023-08-30T02:06:29;2.17;;;1.98;;
18194;SDS011;9223;50.988;3.162;2023-08-30T02:13:35;3.47;;;3.05;;
18194;SDS011;9223;50.988;3.162;2023-08-30T02:20:30;3.15;;;2.72;;
18194;SDS011;9223;50.988;3.162;2023-08-30T02:33:54;3.08;;;1.85;;
18194;SDS011;9223;50.988;3.162;2023-08-30T02:40:01;2.83;;;2.10;;
18194;SDS011;9223;50.988;3.162;2023-08-30T03:07:22;1.98;;;1.77;;
18194;SDS011;9223;50.988;3.162;2023-08-30T03:27:53;2.50;;;2.30;;
18194;SDS011;9223;50.988;3.162;2023-08-30T03:34:16;2.30;;;1.38;;
18194;SDS011;9223;50.988;3.162;2023-08-30T03:54:42;3.42;;;2.58;;
18194;SDS011;9223;50.988;3.162;2023-08-30T04:01:05;3.35;;;2.47;;
18194;SDS011;9223;50.988;3.162;2023-08-30T04:21:13;4.35;;;2.00;;
18194;SDS011;9223;50.988;3.162;2023-08-30T04:27:43;3.55;;;2.30;;
18194;SDS011;9223;50.988;3.162;2023-08-30T04:34:19;1.85;;;1.70;;
18194;SDS011;9223;50.988;3.162;2023-08-30T04:40:58;3.25;;;2.00;;
18194;SDS011;9223;50.988;3.162;2023-08-30T04:47:22;3.60;;;1.98;;
18194;SDS011;9223;50.988;3.162;2023-08-30T04:53:50;2.45;;;2.08;;
18194;SDS011;9223;50.988;3.162;2023-08-30T05:00:11;1.80;;;1.52;;
18194;SDS011;9223;50.988;3.162;2023-08-30T05:06:18;3.25;;;2.95;;
18194;SDS011;9223;50.988;3.162;2023-08-30T05:12:39;3.92;;;2.60;;
18194;SDS011;9223;50.988;3.162;2023-08-30T05:18:51;3.22;;;2.42;;
18194;SDS011;9223;50.988;3.162;2023-08-30T05:25:11;2.25;;;2.05;;
18194;SDS011;9223;50.988;3.162;2023-08-30T05:31:23;3.53;;;2.90;;
18194;SDS011;9223;50.988;3.162;2023-08-30T05:37:48;2.45;;;2.25;;
18194;SDS011;9223;50.988;3.162;2023-08-30T05:44:03;3.67;;;2.88;;
18194;SDS011;9223;50.988;3.162;2023-08-30T05:50:22;3.72;;;3.40;;
18194;SDS011;9223;50.988;3.162;2023-08-30T05:56:32;2.88;;;2.58;;
18194;SDS011;9223;50.988;3.162;2023-08-30T06:02:39;5.22;;;2.80;;
18194;SDS011;9223;50.988;3.162;2023-08-30T06:08:46;4.40;;;2.60;;
18194;SDS011;9223;50.988;3.162;2023-08-30T06:14:55;3.58;;;2.40;;
18194;SDS011;9223;50.988;3.162;2023-08-30T06:20:59;5.53;;;4.70;;
18194;SDS011;9223;50.988;3.162;2023-08-30T06:27:04;4.15;;;3.75;;
18194;SDS011;9223;50.988;3.162;2023-08-30T06:33:10;3.42;;;3.13;;
18194;SDS011;9223;50.988;3.162;2023-08-30T06:39:14;6.18;;;4.10;;
18194;SDS011;9223;50.988;3.162;2023-08-30T06:45:19;5.18;;;4.68;;
18194;SDS011;9223;50.988;3.162;2023-08-30T06:51:24;3.88;;;3.50;;
18194;SDS011;9223;50.988;3.162;2023-08-30T06:57:32;4.25;;;3.80;;
18194;SDS011;9223;50.988;3.162;2023-08-30T07:03:36;4.05;;;3.08;;
18194;SDS011;9223;50.988;3.162;2023-08-30T07:09:48;3.95;;;2.53;;
18194;SDS011;9223;50.988;3.162;2023-08-30T07:15:52;4.40;;;2.60;;
18194;SDS011;9223;50.988;3.162;2023-08-30T07:21:56;3.35;;;2.63;;
18194;SDS011;9223;50.988;3.162;2023-08-30T07:28:01;4.03;;;2.50;;
18194;SDS011;9223;50.988;3.162;2023-08-30T07:34:06;2.78;;;1.95;;
18194;SDS011;9223;50.988;3.162;2023-08-30T07:40:13;2.92;;;1.77;;
18194;SDS011;9223;50.988;3.162;2023-08-30T07:46:18;3.35;;;1.88;;
18194;SDS011;9223;50.988;3.162;2023-08-30T07:52:23;2.37;;;1.97;;
18194;SDS011;9223;50.988;3.162;2023-08-30T07:58:45;4.38;;;2.05;;
18194;SDS011;9223;50.988;3.162;2023-08-30T08:05:03;2.85;;;1.90;;
18194;SDS011;9223;50.988;3.162;2023-08-30T08:11:12;4.15;;;1.75;;
18194;SDS011;9223;50.988;3.162;2023-08-30T08:17:34;4.38;;;1.70;;
18194;SDS011;9223;50.988;3.162;2023-08-30T08:23:48;3.22;;;1.65;;
18194;SDS011;9223;50.988;3.162;2023-08-30T08:29:56;5.65;;;1.75;;
18194;SDS011;9223;50.988;3.162;2023-08-30T08:36:10;3.28;;;1.83;;
18194;SDS011;9223;50.988;3.162;2023-08-30T08:42:21;3.08;;;1.52;;
18194;SDS011;9223;50.988;3.162;2023-08-30T08:48:26;3.67;;;2.03;;
18194;SDS011;9223;50.988;3.162;2023-08-30T08:54:31;4.75;;;1.67;;
18194;SDS011;9223;50.988;3.162;2023-08-30T09:00:36;8.50;;;1.75;;
18194;SDS011;9223;50.988;3.162;2023-08-30T09:06:40;2.75;;;1.33;;
18194;SDS011;9223;50.988;3.162;2023-08-30T09:12:45;4.82;;;1.60;;
18194;SDS011;9223;50.988;3.162;2023-08-30T09:18:58;5.88;;;1.58;;
18194;SDS011;9223;50.988;3.162;2023-08-30T09:25:11;4.32;;;1.40;;
18194;SDS011;9223;50.988;3.162;2023-08-30T09:31:25;4.68;;;1.52;;
18194;SDS011;9223;50.988;3.162;2023-08-30T09:37:31;4.68;;;1.40;;
18194;SDS011;9223;50.988;3.162;2023-08-30T09:43:35;3.03;;;1.50;;
18194;SDS011;9223;50.988;3.162;2023-08-30T09:49:40;6.05;;;1.70;;
18194;SDS011;9223;50.988;3.162;2023-08-30T09:55:47;9.18;;;2.42;;
18194;SDS011;9223;50.988;3.162;2023-08-30T10:01:51;5.95;;;2.00;;
18194;SDS011;9223;50.988;3.162;2023-08-30T10:07:56;4.15;;;1.55;;
18194;SDS011;9223;50.988;3.162;2023-08-30T10:14:01;4.45;;;1.75;;
18194;SDS011;9223;50.988;3.162;2023-08-30T10:20:08;4.75;;;1.50;;
18194;SDS011;9223;50.988;3.162;2023-08-30T10:26:13;4.68;;;1.65;;
18194;SDS011;9223;50.988;3.162;2023-08-30T10:32:20;3.78;;;1.50;;
18194;SDS011;9223;50.988;3.162;2023-08-30T10:38:24;4.65;;;1.40;;
18194;SDS011;9223;50.988;3.162;2023-08-30T10:44:28;1.80;;;1.20;;
18194;SDS011;9223;50.988;3.162;2023-08-30T10:50:33;3.88;;;0.95;;
18194;SDS011;9223;50.988;3.162;2023-08-30T10:56:45;5.18;;;1.35;;
18194;SDS011;9223;50.988;3.162;2023-08-30T11:02:49;2.55;;;1.42;;
18194;SDS011;9223;50.988;3.162;2023-08-30T11:08:54;3.73;;;1.50;;
18194;SDS011;9223;50.988;3.162;2023-08-30T11:14:58;3.08;;;1.20;;
18194;SDS011;9223;50.988;3.162;2023-08-30T11:21:02;2.15;;;1.15;;
18194;SDS011;9223;50.988;3.162;2023-08-30T11:27:09;4.55;;;1.50;;
18194;SDS011;9223;50.988;3.162;2023-08-30T11:33:13;7.93;;;1.58;;
18194;SDS011;9223;50.988;3.162;2023-08-30T11:39:20;4.85;;;1.30;;
18194;SDS011;9223;50.988;3.162;2023-08-30T11:45:25;3.03;;;1.45;;
18194;SDS011;9223;50.988;3.162;2023-08-30T11:51:29;1.83;;;1.13;;
18194;SDS011;9223;50.988;3.162;2023-08-30T11:57:34;2.17;;;1.05;;
18194;SDS011;9223;50.988;3.162;2023-08-30T12:03:40;1.55;;;0.90;;
18194;SDS011;9223;50.988;3.162;2023-08-30T12:09:44;1.90;;;1.00;;
18194;SDS011;9223;50.988;3.162;2023-08-30T12:15:47;1.85;;;0.75;;
18194;SDS011;9223;50.988;3.162;2023-08-30T12:21:52;1.15;;;0.82;;
18194;SDS011;9223;50.988;3.162;2023-08-30T12:27:57;1.58;;;0.80;;
18194;SDS011;9223;50.988;3.162;2023-08-30T12:34:00;1.98;;;0.70;;
18194;SDS011;9223;50.988;3.162;2023-08-30T12:40:06;2.78;;;0.90;;
18194;SDS011;9223;50.988;3.162;2023-08-30T12:46:09;2.35;;;0.80;;
18194;SDS011;9223;50.988;3.162;2023-08-30T12:52:13;3.15;;;0.90;;
18194;SDS011;9223;50.988;3.162;2023-08-30T12:58:18;3.28;;;1.10;;
18194;SDS011;9223;50.988;3.162;2023-08-30T13:04:22;2.50;;;0.80;;
18194;SDS011;9223;50.988;3.162;2023-08-30T13:10:25;5.22;;;1.00;;
18194;SDS011;9223;50.988;3.162;2023-08-30T13:16:30;2.90;;;0.95;;
18194;SDS011;9223;50.988;3.162;2023-08-30T13:22:34;1.60;;;0.90;;
18194;SDS011;9223;50.988;3.162;2023-08-30T13:28:38;3.20;;;0.70;;
18194;SDS011;9223;50.988;3.162;2023-08-30T13:34:43;1.55;;;0.70;;
18194;SDS011;9223;50.988;3.162;2023-08-30T13:40:47;2.08;;;0.90;;
18194;SDS011;9223;50.988;3.162;2023-08-30T13:46:50;0.60;;;0.50;;
18194;SDS011;9223;50.988;3.162;2023-08-30T13:52:55;2.50;;;0.60;;
18194;SDS011;9223;50.988;3.162;2023-08-30T13:58:59;2.65;;;0.82;;
18194;SDS011;9223;50.988;3.162;2023-08-30T14:05:03;2.15;;;0.68;;
18194;SDS011;9223;50.988;3.162;2023-08-30T14:11:08;2.50;;;0.95;;
18194;SDS011;9223;50.988;3.162;2023-08-30T14:17:12;2.05;;;0.73;;
18194;SDS011;9223;50.988;3.162;2023-08-30T14:23:15;1.60;;;0.70;;
18194;SDS011;9223;50.988;3.162;2023-08-30T14:29:21;4.82;;;1.00;;
18194;SDS011;9223;50.988;3.162;2023-08-30T14:35:24;1.85;;;0.90;;
18194;SDS011;9223;50.988;3.162;2023-08-30T14:41:29;1.42;;;0.80;;
18194;SDS011;9223;50.988;3.162;2023-08-30T14:47:35;1.92;;;1.00;;
18194;SDS011;9223;50.988;3.162;2023-08-30T14:53:38;3.50;;;0.95;;
18194;SDS011;9223;50.988;3.162;2023-08-30T14:59:42;1.83;;;1.00;;
18194;SDS011;9223;50.988;3.162;2023-08-30T15:05:53;1.85;;;1.20;;
18194;SDS011;9223;50.988;3.162;2023-08-30T15:11:56;1.42;;;0.88;;
18194;SDS011;9223;50.988;3.162;2023-08-30T15:18:00;1.92;;;1.02;;
18194;SDS011;9223;50.988;3.162;2023-08-30T15:24:05;2.38;;;1.00;;
18194;SDS011;9223;50.988;3.162;2023-08-30T15:30:10;3.45;;;1.23;;
18194;SDS011;9223;50.988;3.162;2023-08-30T15:36:14;2.42;;;1.02;;
18194;SDS011;9223;50.988;3.162;2023-08-30T15:42:19;1.42;;;1.00;;
18194;SDS011;9223;50.988;3.162;2023-08-30T15:48:23;1.77;;;1.17;;
18194;SDS011;9223;50.988;3.162;2023-08-30T15:54:26;3.03;;;1.50;;
18194;SDS011;9223;50.988;3.162;2023-08-30T16:00:31;1.70;;;0.90;;
18194;SDS011;9223;50.988;3.162;2023-08-30T16:06:42;2.67;;;1.67;;
18194;SDS011;9223;50.988;3.162;2023-08-30T16:12:46;2.45;;;1.40;;
18194;SDS011;9223;50.988;3.162;2023-08-30T16:18:51;1.98;;;1.40;;
18194;SDS011;9223;50.988;3.162;2023-08-30T16:24:55;1.95;;;1.27;;
18194;SDS011;9223;50.988;3.162;2023-08-30T16:30:58;2.40;;;1.05;;
18194;SDS011;9223;50.988;3.162;2023-08-30T16:37:04;4.13;;;1.30;;
18194;SDS011;9223;50.988;3.162;2023-08-30T16:43:07;2.13;;;1.50;;
18194;SDS011;9223;50.988;3.162;2023-08-30T16:49:11;2.55;;;1.40;;
18194;SDS011;9223;50.988;3.162;2023-08-30T16:55:16;2.22;;;1.17;;
18194;SDS011;9223;50.988;3.162;2023-08-30T17:01:21;3.42;;;1.73;;
18194;SDS011;9223;50.988;3.162;2023-08-30T17:07:25;2.28;;;1.50;;
18194;SDS011;9223;50.988;3.162;2023-08-30T17:13:30;1.83;;;1.42;;
18194;SDS011;9223;50.988;3.162;2023-08-30T17:19:34;12.18;;;3.97;;
18194;SDS011;9223;50.988;3.162;2023-08-30T17:25:38;15.23;;;5.30;;
18194;SDS011;9223;50.988;3.162;2023-08-30T17:31:43;11.85;;;4.32;;
18194;SDS011;9223;50.988;3.162;2023-08-30T17:37:46;14.70;;;7.10;;
18194;SDS011;9223;50.988;3.162;2023-08-30T17:43:49;14.95;;;5.10;;
18194;SDS011;9223;50.988;3.162;2023-08-30T17:49:54;6.72;;;2.83;;
18194;SDS011;9223;50.988;3.162;2023-08-30T17:55:58;4.40;;;2.38;;
18194;SDS011;9223;50.988;3.162;2023-08-30T18:02:03;1.95;;;1.45;;
18194;SDS011;9223;50.988;3.162;2023-08-30T18:08:08;5.40;;;2.20;;
18194;SDS011;9223;50.988;3.162;2023-08-30T18:14:12;3.60;;;1.77;;
18194;SDS011;9223;50.988;3.162;2023-08-30T18:20:16;1.88;;;1.70;;
18194;SDS011;9223;50.988;3.162;2023-08-30T18:26:21;3.15;;;2.00;;
18194;SDS011;9223;50.988;3.162;2023-08-30T18:32:24;3.78;;;1.77;;
18194;SDS011;9223;50.988;3.162;2023-08-30T18:38:28;5.28;;;2.00;;
18194;SDS011;9223;50.988;3.162;2023-08-30T18:44:33;5.85;;;1.13;;
18194;SDS011;9223;50.988;3.162;2023-08-30T18:50:39;2.13;;;1.20;;
18194;SDS011;9223;50.988;3.162;2023-08-30T18:56:43;3.60;;;2.00;;
18194;SDS011;9223;50.988;3.162;2023-08-30T19:02:48;3.65;;;1.00;;
18194;SDS011;9223;50.988;3.162;2023-08-30T19:08:52;3.60;;;0.98;;
18194;SDS011;9223;50.988;3.162;2023-08-30T19:14:56;4.38;;;0.82;;
18194;SDS011;9223;50.988;3.162;2023-08-30T19:21:02;4.18;;;1.02;;
18194;SDS011;9223;50.988;3.162;2023-08-30T19:27:07;2.20;;;0.77;;
18194;SDS011;9223;50.988;3.162;2023-08-30T19:33:12;1.15;;;0.65;;
18194;SDS011;9223;50.988;3.162;2023-08-30T19:39:17;3.55;;;1.00;;
18194;SDS011;9223;50.988;3.162;2023-08-30T19:45:21;2.22;;;0.70;;
18194;SDS011;9223;50.988;3.162;2023-08-30T19:51:25;2.72;;;0.82;;
18194;SDS011;9223;50.988;3.162;2023-08-30T19:57:30;2.30;;;1.00;;
18194;SDS011;9223;50.988;3.162;2023-08-30T20:03:37;2.95;;;1.13;;
18194;SDS011;9223;50.988;3.162;2023-08-30T20:09:42;1.83;;;1.20;;
18194;SDS011;9223;50.988;3.162;2023-08-30T20:15:55;1.70;;;1.20;;
18194;SDS011;9223;50.988;3.162;2023-08-30T20:22:00;3.33;;;1.25;;
18194;SDS011;9223;50.988;3.162;2023-08-30T20:28:04;3.38;;;1.45;;
18194;SDS011;9223;50.988;3.162;2023-08-30T20:34:09;3.03;;;1.40;;
18194;SDS011;9223;50.988;3.162;2023-08-30T20:40:15;2.90;;;1.48;;
18194;SDS011;9223;50.988;3.162;2023-08-30T20:46:19;1.83;;;1.30;;
18194;SDS011;9223;50.988;3.162;2023-08-30T20:52:24;2.55;;;1.25;;
18194;SDS011;9223;50.988;3.162;2023-08-30T20:58:30;3.75;;;1.50;;
18194;SDS011;9223;50.988;3.162;2023-08-30T21:04:34;3.28;;;1.70;;
18194;SDS011;9223;50.988;3.162;2023-08-30T21:10:38;2.88;;;1.42;;
18194;SDS011;9223;50.988;3.162;2023-08-30T21:16:42;2.35;;;1.75;;
18194;SDS011;9223;50.988;3.162;2023-08-30T21:22:45;5.45;;;1.65;;
18194;SDS011;9223;50.988;3.162;2023-08-30T21:28:50;3.88;;;2.20;;
18194;SDS011;9223;50.988;3.162;2023-08-30T21:34:54;2.42;;;1.48;;
18194;SDS011;9223;50.988;3.162;2023-08-30T21:40:57;2.45;;;1.67;;
18194;SDS011;9223;50.988;3.162;2023-08-30T21:47:03;2.55;;;1.88;;
18194;SDS011;9223;50.988;3.162;2023-08-30T21:53:06;3.22;;;1.42;;
18194;SDS011;9223;50.988;3.162;2023-08-30T21:59:11;3.28;;;1.65;;
18194;SDS011;9223;50.988;3.162;2023-08-30T22:05:15;4.13;;;1.75;;
18194;SDS011;9223;50.988;3.162;2023-08-30T22:11:19;3.08;;;1.95;;
18194;SDS011;9223;50.988;3.162;2023-08-30T22:17:22;2.75;;;1.90;;
18194;SDS011;9223;50.988;3.162;2023-08-30T22:23:27;4.55;;;2.10;;
18194;SDS011;9223;50.988;3.162;2023-08-30T22:29:31;3.75;;;1.95;;
18194;SDS011;9223;50.988;3.162;2023-08-30T22:35:35;3.35;;;1.83;;
18194;SDS011;9223;50.988;3.162;2023-08-30T22:41:40;3.72;;;1.67;;
18194;SDS011;9223;50.988;3.162;2023-08-30T22:47:43;3.00;;;2.05;;
18194;SDS011;9223;50.988;3.162;2023-08-30T22:53:48;4.50;;;1.80;;
18194;SDS011;9223;50.988;3.162;2023-08-30T22:59:52;3.25;;;2.00;;
18194;SDS011;9223;50.988;3.162;2023-08-30T23:05:56;2.95;;;2.10;;
18194;SDS011;9223;50.988;3.162;2023-08-30T23:11:59;2.72;;;1.92;;
18194;SDS011;9223;50.988;3.162;2023-08-30T23:18:04;3.42;;;1.88;;
18194;SDS011;9223;50.988;3.162;2023-08-30T23:24:08;2.70;;;1.88;;
18194;SDS011;9223;50.988;3.162;2023-08-30T23:30:12;4.60;;;2.00;;
18194;SDS011;9223;50.988;3.162;2023-08-30T23:36:19;3.72;;;1.90;;
18194;SDS011;9223;50.988;3.162;2023-08-30T23:42:22;2.55;;;1.83;;
18194;SDS011;9223;50.988;3.162;2023-08-30T23:48:26;3.65;;;2.10;;
18194;SDS011;9223;50.988;3.162;2023-08-30T23:54:31;4.10;;;2.00;;
